createdAt,value
2024-01-03T00:00:27.323Z,93827.00
2024-01-03T00:01:29.100Z,93817.00
2024-01-03T00:02:27.406Z,93817.00
2024-01-03T00:03:27.353Z,93818.00
2024-01-03T00:04:27.359Z,93819.00
2024-01-03T00:05:27.401Z,93821.00
2024-01-03T00:06:27.340Z,93823.00
2024-01-03T00:07:27.330Z,93817.00
2024-01-03T00:08:27.392Z,93813.00
2024-01-03T00:09:27.387Z,93818.00
2024-01-03T00:10:27.368Z,93812.00
2024-01-03T00:11:27.367Z,93807.00
2024-01-03T00:12:27.369Z,93797.00
2024-01-03T00:13:27.351Z,93800.00
2024-01-03T00:14:27.413Z,93821.00
2024-01-03T00:15:27.368Z,93819.00
2024-01-03T00:16:27.348Z,93824.00
2024-01-03T00:17:27.459Z,93820.00
2024-01-03T00:18:27.408Z,93815.00
2024-01-03T00:19:27.451Z,93819.00
2024-01-03T00:20:27.387Z,93816.00
2024-01-03T00:21:27.741Z,93820.00
2024-01-03T00:22:33.627Z,93827.00
2024-01-03T00:23:28.378Z,93828.00
2024-01-03T00:24:27.346Z,93829.00
2024-01-03T00:25:27.400Z,93829.00
2024-01-03T00:26:27.390Z,93823.00
2024-01-03T00:27:27.398Z,93816.00
2024-01-03T00:28:27.356Z,93810.00
2024-01-03T00:29:27.439Z,93806.00
2024-01-03T00:30:27.497Z,93801.00
2024-01-03T00:31:27.380Z,93795.00
2024-01-03T00:32:27.404Z,93797.00
2024-01-03T00:33:27.480Z,93808.00
2024-01-03T00:34:27.629Z,93809.00
2024-01-03T00:35:27.521Z,93813.00
2024-01-03T00:36:27.506Z,93815.00
2024-01-03T00:37:27.532Z,93813.00
2024-01-03T00:38:27.596Z,93811.00
2024-01-03T00:39:27.651Z,93803.00
2024-01-03T00:40:27.665Z,93798.00
2024-01-03T00:41:27.758Z,93791.00
2024-01-03T00:42:27.833Z,93794.00
2024-01-03T00:43:27.834Z,93800.00
2024-01-03T00:44:27.918Z,93802.00
2024-01-03T00:45:27.960Z,93805.00
2024-01-03T00:46:28.000Z,93806.00
2024-01-03T00:47:28.105Z,93808.00
2024-01-03T00:48:28.283Z,93808.00
2024-01-03T00:49:28.214Z,93813.00
2024-01-03T00:50:28.221Z,93812.00
2024-01-03T00:51:28.213Z,93812.00
2024-01-03T00:52:28.252Z,93819.00
2024-01-03T00:53:56.235Z,93823.00
2024-01-03T00:54:56.216Z,93829.00
2024-01-03T00:55:56.269Z,93826.00
2024-01-03T00:56:56.330Z,93828.00
2024-01-03T00:57:56.382Z,93824.00
2024-01-03T00:58:56.503Z,93823.00
2024-01-03T00:59:56.468Z,93822.00
2024-01-03T01:00:56.571Z,93828.00
2024-01-03T01:01:56.563Z,93838.00
2024-01-03T01:02:56.595Z,93835.00
2024-01-03T01:03:56.674Z,93834.00
2024-01-03T01:04:56.767Z,93832.00
2024-01-03T01:05:56.962Z,93833.00
2024-01-03T01:06:56.802Z,93834.00
2024-01-03T01:07:56.871Z,93840.00
2024-01-03T01:08:56.928Z,93842.00
2024-01-03T01:09:56.952Z,93838.00
2024-01-03T01:10:57.004Z,93841.00
2024-01-03T01:11:57.113Z,93839.00
2024-01-03T01:12:57.116Z,93840.00
2024-01-03T01:13:57.128Z,93846.00
2024-01-03T01:14:57.253Z,93855.00
2024-01-03T01:15:57.244Z,93860.00
2024-01-03T01:16:57.286Z,93864.00
2024-01-03T01:17:57.533Z,93862.00
2024-01-03T01:18:57.461Z,93868.00
2024-01-03T01:19:57.412Z,93862.00
2024-01-03T01:20:57.545Z,93861.00
2024-01-03T01:21:57.517Z,93860.00
2024-01-03T01:22:57.723Z,93858.00
2024-01-03T01:23:57.694Z,93858.00
2024-01-03T01:24:57.694Z,93861.00
2024-01-03T01:25:57.722Z,93864.00
2024-01-03T01:26:57.959Z,93864.00
2024-01-03T01:27:57.864Z,93861.00
2024-01-03T01:28:57.921Z,93864.00
2024-01-03T01:29:58.010Z,93869.00
2024-01-03T01:30:58.024Z,93866.00
2024-01-03T01:31:58.076Z,93862.00
2024-01-03T01:32:58.150Z,93862.00
2024-01-03T01:33:58.301Z,93859.00
2024-01-03T01:34:58.254Z,93859.00
2024-01-03T01:35:58.325Z,93862.00
2024-01-03T01:36:58.316Z,93869.00
2024-01-03T01:37:58.385Z,93874.00
2024-01-03T01:38:58.393Z,93874.00
2024-01-03T01:39:58.462Z,93873.00
2024-01-03T01:40:58.499Z,93875.00
2024-01-03T01:41:58.594Z,93877.00
2024-01-03T01:42:58.592Z,93885.00
2024-01-03T01:43:58.646Z,93889.00
2024-01-03T01:44:58.678Z,93888.00
2024-01-03T01:45:58.828Z,93887.00
2024-01-03T01:46:58.808Z,93881.00
2024-01-03T01:47:59.009Z,93885.00
2024-01-03T01:48:59.042Z,93886.00
2024-01-03T01:49:58.948Z,93894.00
2024-01-03T01:50:59.018Z,93888.00
2024-01-03T01:51:59.022Z,93886.00
2024-01-03T01:52:59.063Z,93882.00
2024-01-03T01:53:59.232Z,93877.00
2024-01-03T01:54:59.184Z,93865.00
2024-01-03T01:55:59.261Z,93855.00
2024-01-03T01:56:59.337Z,93864.00
2024-01-03T01:57:59.337Z,93867.00
2024-01-03T01:58:59.407Z,93869.00
2024-01-03T01:59:59.459Z,93872.00
2024-01-03T02:00:59.523Z,93879.00
2024-01-03T02:01:59.561Z,93882.00
2024-01-03T02:02:59.663Z,93884.00
2024-01-03T02:03:59.680Z,93887.00
2024-01-03T02:04:59.846Z,93885.00
2024-01-03T02:05:59.790Z,93888.00
2024-01-03T02:06:59.814Z,93888.00
2024-01-03T02:07:59.893Z,93884.00
2024-01-03T02:08:59.980Z,93879.00
2024-01-03T02:10:00.014Z,93869.00
2024-01-03T02:11:00.049Z,93863.00
2024-01-03T02:12:00.154Z,93866.00
2024-01-03T02:13:00.102Z,93870.00
2024-01-03T02:14:00.229Z,93866.00
2024-01-03T02:15:00.323Z,93857.00
2024-01-03T02:16:00.278Z,93847.00
2024-01-03T02:17:00.323Z,93848.00
2024-01-03T02:18:00.555Z,93841.00
2024-01-03T02:19:00.522Z,93839.00
2024-01-03T02:20:00.488Z,93849.00
2024-01-03T02:21:00.776Z,93852.00
2024-01-03T02:22:00.600Z,93844.00
2024-01-03T02:23:00.631Z,93838.00
2024-01-03T02:24:00.707Z,93827.00
2024-01-03T02:25:00.725Z,93825.00
2024-01-03T02:26:07.343Z,93817.00
2024-01-03T02:27:01.853Z,93821.00
2024-01-03T02:28:00.760Z,93827.00
2024-01-03T02:29:00.798Z,93840.00
2024-01-03T02:30:00.847Z,93854.00
2024-01-03T02:31:00.823Z,93856.00
2024-01-03T02:32:00.797Z,93859.00
2024-01-03T02:33:00.956Z,93863.00
2024-01-03T02:34:00.879Z,93859.00
2024-01-03T02:35:00.810Z,93855.00
2024-01-03T02:36:00.854Z,93848.00
2024-01-03T02:37:00.835Z,93846.00
2024-01-03T02:38:00.793Z,93839.00
2024-01-03T02:39:00.866Z,93833.00
2024-01-03T02:40:00.799Z,93844.00
2024-01-03T02:41:00.815Z,93854.00
2024-01-03T02:42:00.871Z,93857.00
2024-01-03T02:43:00.833Z,93858.00
2024-01-03T02:44:00.759Z,93858.00
2024-01-03T02:45:00.939Z,93862.00
2024-01-03T02:46:00.830Z,93863.00
2024-01-03T02:47:00.862Z,93861.00
2024-01-03T02:48:01.012Z,93860.00
2024-01-03T02:49:00.959Z,93869.00
2024-01-03T02:50:01.058Z,93860.00
2024-01-03T02:51:00.951Z,93844.00
2024-01-03T02:52:00.908Z,93826.00
2024-01-03T02:53:00.954Z,93818.00
2024-01-03T02:54:01.037Z,93840.00
2024-01-03T02:55:01.050Z,93860.00
2024-01-03T02:56:01.104Z,93864.00
2024-01-03T02:57:01.201Z,93864.00
2024-01-03T02:58:01.217Z,93867.00
2024-01-03T02:59:01.238Z,93877.00
2024-01-03T03:00:01.399Z,93876.00
2024-01-03T03:01:01.439Z,93877.00
2024-01-03T03:02:01.396Z,93878.00
2024-01-03T03:03:01.464Z,93887.00
2024-01-03T03:04:01.643Z,93857.00
2024-01-03T03:05:01.544Z,93875.00
2024-01-03T03:06:01.687Z,93879.00
2024-01-03T03:07:01.728Z,93886.00
2024-01-03T03:08:01.696Z,93899.00
2024-01-03T03:09:12.916Z,93901.00
2024-01-03T03:10:02.775Z,93895.00
2024-01-03T03:11:01.806Z,93895.00
2024-01-03T03:12:01.792Z,93900.00
2024-01-03T03:13:01.781Z,93896.00
2024-01-03T03:14:01.761Z,93901.00
2024-01-03T03:15:01.858Z,93906.00
2024-01-03T03:16:01.816Z,93908.00
2024-01-03T03:17:01.773Z,93909.00
2024-01-03T03:18:02.027Z,93909.00
2024-01-03T03:19:02.047Z,93908.00
2024-01-03T03:20:01.969Z,93913.00
2024-01-03T03:21:02.094Z,93910.00
2024-01-03T03:22:02.122Z,93910.00
2024-01-03T03:23:02.162Z,93912.00
2024-01-03T03:24:02.407Z,93916.00
2024-01-03T03:25:02.284Z,93915.00
2024-01-03T03:26:02.364Z,93919.00
2024-01-03T03:27:02.442Z,93921.00
2024-01-03T03:28:02.477Z,93915.00
2024-01-03T03:29:02.543Z,93912.00
2024-01-03T03:30:02.676Z,93911.00
2024-01-03T03:31:02.700Z,93912.00
2024-01-03T03:32:02.696Z,93911.00
2024-01-03T03:33:02.858Z,93907.00
2024-01-03T03:34:02.841Z,93912.00
2024-01-03T03:35:02.910Z,93910.00
2024-01-03T03:36:03.074Z,93908.00
2024-01-03T03:37:02.970Z,93899.00
2024-01-03T03:38:03.042Z,93895.00
2024-01-03T03:39:03.149Z,93896.00
2024-01-03T03:40:03.127Z,93905.00
2024-01-03T03:41:03.197Z,93901.00
2024-01-03T03:42:03.353Z,93901.00
2024-01-03T03:43:03.322Z,93900.00
2024-01-03T03:44:03.405Z,93902.00
2024-01-03T03:45:03.545Z,93902.00
2024-01-03T03:46:03.488Z,93907.00
2024-01-03T03:47:03.559Z,93909.00
2024-01-03T03:48:03.690Z,93903.00
2024-01-03T03:49:03.746Z,93904.00
2024-01-03T03:50:03.676Z,93899.00
2024-01-03T03:51:03.750Z,93894.00
2024-01-03T03:52:03.820Z,93904.00
2024-01-03T03:53:03.866Z,93907.00
2024-01-03T03:54:03.966Z,93909.00
2024-01-03T03:55:04.004Z,93911.00
2024-01-03T03:56:04.032Z,93908.00
2024-01-03T03:57:04.161Z,93908.00
2024-01-03T03:58:04.139Z,93905.00
2024-01-03T03:59:04.174Z,93908.00
2024-01-03T04:00:04.298Z,93909.00
2024-01-03T04:01:04.316Z,93895.00
2024-01-03T04:02:04.352Z,93913.00
2024-01-03T04:03:04.389Z,93902.00
2024-01-03T04:04:04.484Z,93897.00
2024-01-03T04:05:04.515Z,93895.00
2024-01-03T04:06:04.623Z,93897.00
2024-01-03T04:07:04.610Z,93904.00
2024-01-03T04:08:04.626Z,93911.00
2024-01-03T04:09:04.714Z,93906.00
2024-01-03T04:10:04.731Z,93900.00
2024-01-03T04:11:04.775Z,93897.00
2024-01-03T04:12:04.802Z,93904.00
2024-01-03T04:13:04.874Z,93897.00
2024-01-03T04:14:04.941Z,93902.00
2024-01-03T04:15:04.934Z,93913.00
2024-01-03T04:16:04.988Z,93901.00
2024-01-03T04:17:05.062Z,93900.00
2024-01-03T04:18:05.168Z,93903.00
2024-01-03T04:19:05.250Z,93890.00
2024-01-03T04:20:05.188Z,93885.00
2024-01-03T04:21:05.226Z,93884.00
2024-01-03T04:22:05.192Z,93879.00
2024-01-03T04:23:05.236Z,93874.00
2024-01-03T04:24:05.348Z,93871.00
2024-01-03T04:25:05.334Z,93881.00
2024-01-03T04:26:05.356Z,93876.00
2024-01-03T04:27:05.424Z,93870.00
2024-01-03T04:28:05.473Z,93872.00
2024-01-03T04:29:05.497Z,93858.00
2024-01-03T04:30:05.625Z,93859.00
2024-01-03T04:31:05.657Z,93856.00
2024-01-03T04:32:05.605Z,93858.00
2024-01-03T04:33:05.788Z,93864.00
2024-01-03T04:34:05.702Z,93860.00
2024-01-03T04:35:13.477Z,93861.00
2024-01-03T04:36:13.439Z,93859.00
2024-01-03T04:37:13.460Z,93861.00
2024-01-03T04:38:13.449Z,93859.00
2024-01-03T04:39:13.471Z,93860.00
2024-01-03T04:40:13.471Z,93854.00
2024-01-03T04:41:13.482Z,93864.00
2024-01-03T04:42:13.493Z,93865.00
2024-01-03T04:43:13.453Z,93864.00
2024-01-03T04:44:13.490Z,93868.00
2024-01-03T04:45:13.475Z,93871.00
2024-01-03T04:46:13.474Z,93871.00
2024-01-03T04:47:13.512Z,93869.00
2024-01-03T04:48:13.925Z,93865.00
2024-01-03T04:49:13.553Z,93868.00
2024-01-03T04:50:13.506Z,93862.00
2024-01-03T04:51:14.382Z,93859.00
2024-01-03T04:52:13.484Z,93863.00
2024-01-03T04:53:13.526Z,93854.00
2024-01-03T04:54:13.511Z,93854.00
2024-01-03T04:55:13.472Z,93853.00
2024-01-03T04:56:13.508Z,93853.00
2024-01-03T04:57:13.626Z,93850.00
2024-01-03T04:58:13.532Z,93849.00
2024-01-03T04:59:13.497Z,93850.00
2024-01-03T05:00:13.526Z,93850.00
2024-01-03T05:01:13.546Z,93834.00
2024-01-03T05:02:13.527Z,93838.00
2024-01-03T05:03:13.702Z,93851.00
2024-01-03T05:04:13.645Z,93848.00
2024-01-03T05:05:13.677Z,93855.00
2024-01-03T05:06:13.861Z,93851.00
2024-01-03T05:07:13.757Z,93864.00
2024-01-03T05:08:13.845Z,93853.00
2024-01-03T05:09:13.862Z,93855.00
2024-01-03T05:10:13.926Z,93855.00
2024-01-03T05:11:17.291Z,93864.00
2024-01-03T05:12:13.993Z,93863.00
2024-01-03T05:13:14.004Z,93863.00
2024-01-03T05:14:13.985Z,93863.00
2024-01-03T05:15:13.989Z,93859.00
2024-01-03T05:16:14.069Z,93857.00
2024-01-03T05:17:14.007Z,93860.00
2024-01-03T05:18:14.453Z,93859.00
2024-01-03T05:19:14.153Z,93855.00
2024-01-03T05:20:13.981Z,93859.00
2024-01-03T05:21:13.999Z,93863.00
2024-01-03T05:22:13.996Z,93872.00
2024-01-03T05:23:13.987Z,93878.00
2024-01-03T05:24:14.024Z,93882.00
2024-01-03T05:25:14.030Z,93882.00
2024-01-03T05:26:14.079Z,93883.00
2024-01-03T05:27:13.986Z,93880.00
2024-01-03T05:28:13.995Z,93878.00
2024-01-03T05:29:13.985Z,93879.00
2024-01-03T05:30:14.175Z,93880.00
2024-01-03T05:31:13.998Z,93882.00
2024-01-03T05:32:13.990Z,93882.00
2024-01-03T05:33:14.130Z,93885.00
2024-01-03T05:34:14.015Z,93888.00
2024-01-03T05:35:14.002Z,93888.00
2024-01-03T05:36:14.105Z,93887.00
2024-01-03T05:37:13.994Z,93891.00
2024-01-03T05:38:14.004Z,93896.00
2024-01-03T05:39:14.017Z,93900.00
2024-01-03T05:40:14.027Z,93898.00
2024-01-03T05:41:14.049Z,93890.00
2024-01-03T05:42:13.994Z,93885.00
2024-01-03T05:43:13.988Z,93879.00
2024-01-03T05:44:14.004Z,93881.00
2024-01-03T05:45:14.097Z,93886.00
2024-01-03T05:46:14.177Z,93888.00
2024-01-03T05:47:14.207Z,93892.00
2024-01-03T05:48:14.648Z,93890.00
2024-01-03T05:49:14.435Z,93888.00
2024-01-03T05:50:14.407Z,93885.00
2024-01-03T05:51:14.422Z,93883.00
2024-01-03T05:52:14.533Z,93887.00
2024-01-03T05:53:14.589Z,93891.00
2024-01-03T05:54:14.633Z,93899.00
2024-01-03T05:55:14.714Z,93899.00
2024-01-03T05:56:14.736Z,93897.00
2024-01-03T05:57:14.835Z,93895.00
2024-01-03T05:58:14.859Z,93892.00
2024-01-03T05:59:14.940Z,93893.00
2024-01-03T06:00:15.007Z,93893.00
2024-01-03T06:01:37.746Z,93899.00
2024-01-03T06:02:15.038Z,93901.00
2024-01-03T06:03:15.235Z,93903.00
2024-01-03T06:04:15.066Z,93897.00
2024-01-03T06:05:15.064Z,93882.00
2024-01-03T06:06:15.078Z,93874.00
2024-01-03T06:07:15.080Z,93866.00
2024-01-03T06:08:15.095Z,93873.00
2024-01-03T06:09:15.033Z,93882.00
2024-01-03T06:10:15.082Z,93889.00
2024-01-03T06:11:15.046Z,93888.00
2024-01-03T06:12:15.834Z,93889.00
2024-01-03T06:13:15.082Z,93886.00
2024-01-03T06:14:15.107Z,93886.00
2024-01-03T06:15:15.114Z,93884.00
2024-01-03T06:16:15.153Z,93875.00
2024-01-03T06:17:15.186Z,93862.00
2024-01-03T06:18:15.566Z,93852.00
2024-01-03T06:19:15.369Z,93853.00
2024-01-03T06:20:15.326Z,93861.00
2024-01-03T06:21:15.451Z,93868.00
2024-01-03T06:22:15.465Z,93871.00
2024-01-03T06:23:15.533Z,93868.00
2024-01-03T06:24:15.614Z,93872.00
2024-01-03T06:25:15.616Z,93868.00
2024-01-03T06:26:15.835Z,93863.00
2024-01-03T06:27:15.864Z,93861.00
2024-01-03T06:28:15.845Z,93864.00
2024-01-03T06:29:15.962Z,93872.00
2024-01-03T06:30:16.069Z,93879.00
2024-01-03T06:31:16.098Z,93876.00
2024-01-03T06:32:16.230Z,93877.00
2024-01-03T06:33:16.289Z,93873.00
2024-01-03T06:34:16.350Z,93874.00
2024-01-03T06:35:16.393Z,93880.00
2024-01-03T06:36:16.426Z,93889.00
2024-01-03T06:37:16.474Z,93889.00
2024-01-03T06:38:16.612Z,93890.00
2024-01-03T06:39:16.588Z,93897.00
2024-01-03T06:40:16.706Z,93910.00
2024-01-03T06:41:16.796Z,93920.00
2024-01-03T06:42:16.809Z,93925.00
2024-01-03T06:43:16.915Z,93925.00
2024-01-03T06:44:17.028Z,93921.00
2024-01-03T06:45:17.033Z,93914.00
2024-01-03T06:46:41.861Z,93911.00
2024-01-03T06:47:17.161Z,93910.00
2024-01-03T06:48:17.483Z,93916.00
2024-01-03T06:49:17.176Z,93917.00
2024-01-03T06:50:17.122Z,93921.00
2024-01-03T06:51:17.088Z,93918.00
2024-01-03T06:52:17.107Z,93921.00
2024-01-03T06:53:17.135Z,93920.00
2024-01-03T06:54:17.096Z,93922.00
2024-01-03T06:55:17.126Z,93926.00
2024-01-03T06:56:17.114Z,93932.00
2024-01-03T06:57:17.222Z,93930.00
2024-01-03T06:58:17.220Z,93929.00
2024-01-03T06:59:17.321Z,93923.00
2024-01-03T07:00:17.369Z,93915.00
2024-01-03T07:01:17.492Z,93908.00
2024-01-03T07:02:17.620Z,93907.00
2024-01-03T07:03:17.648Z,93906.00
2024-01-03T07:04:17.621Z,93909.00
2024-01-03T07:05:17.729Z,93913.00
2024-01-03T07:06:17.794Z,93913.00
2024-01-03T07:07:17.861Z,93917.00
2024-01-03T07:08:17.989Z,93914.00
2024-01-03T07:09:17.941Z,93914.00
2024-01-03T07:10:18.051Z,93915.00
2024-01-03T07:11:18.090Z,93916.00
2024-01-03T07:12:18.131Z,93919.00
2024-01-03T07:13:18.203Z,93923.00
2024-01-03T07:14:18.352Z,93926.00
2024-01-03T07:15:18.372Z,93930.00
2024-01-03T07:16:18.553Z,93929.00
2024-01-03T07:17:18.572Z,93926.00
2024-01-03T07:18:18.725Z,93922.00
2024-01-03T07:19:18.695Z,93924.00
2024-01-03T07:20:18.725Z,93929.00
2024-01-03T07:21:18.720Z,93934.00
2024-01-03T07:22:18.795Z,93933.00
2024-01-03T07:23:18.934Z,93934.00
2024-01-03T07:24:19.073Z,93935.00
2024-01-03T07:25:19.055Z,93935.00
2024-01-03T07:26:19.123Z,93939.00
2024-01-03T07:27:19.231Z,93939.00
2024-01-03T07:28:19.237Z,93944.00
2024-01-03T07:29:19.307Z,93945.00
2024-01-03T07:30:19.429Z,93949.00
2024-01-03T07:31:19.408Z,93954.00
2024-01-03T07:32:19.505Z,93961.00
2024-01-03T07:33:19.586Z,93959.00
2024-01-03T07:34:19.761Z,93957.00
2024-01-03T07:35:19.673Z,93949.00
2024-01-03T07:36:19.707Z,93936.00
2024-01-03T07:37:19.813Z,93934.00
2024-01-03T07:38:19.844Z,93935.00
2024-01-03T07:39:19.895Z,93938.00
2024-01-03T07:40:19.956Z,93939.00
2024-01-03T07:41:20.178Z,93938.00
2024-01-03T07:42:20.072Z,93933.00
2024-01-03T07:43:20.133Z,93931.00
2024-01-03T07:44:20.220Z,93930.00
2024-01-03T07:45:20.308Z,93926.00
2024-01-03T07:46:20.380Z,93928.00
2024-01-03T07:47:20.512Z,93928.00
2024-01-03T07:48:20.583Z,93929.00
2024-01-03T07:49:20.759Z,93931.00
2024-01-03T07:50:20.612Z,93935.00
2024-01-03T07:51:20.655Z,93937.00
2024-01-03T07:52:20.704Z,93939.00
2024-01-03T07:53:20.850Z,93944.00
2024-01-03T07:54:20.825Z,93949.00
2024-01-03T07:55:20.952Z,93949.00
2024-01-03T07:56:21.024Z,93950.00
2024-01-03T07:57:21.084Z,93949.00
2024-01-03T07:58:21.107Z,93949.00
2024-01-03T07:59:21.253Z,93945.00
2024-01-03T08:00:21.222Z,93946.00
2024-01-03T08:01:21.385Z,93947.00
2024-01-03T08:02:21.474Z,93943.00
2024-01-03T08:03:21.534Z,93941.00
2024-01-03T08:04:21.535Z,93940.00
2024-01-03T08:05:21.764Z,93941.00
2024-01-03T08:06:21.903Z,93943.00
2024-01-03T08:07:21.749Z,93945.00
2024-01-03T08:08:21.843Z,93949.00
2024-01-03T08:09:21.874Z,93947.00
2024-01-03T08:10:21.927Z,93940.00
2024-01-03T08:11:22.022Z,93938.00
2024-01-03T08:12:22.042Z,93933.00
2024-01-03T08:13:22.120Z,93936.00
2024-01-03T08:14:22.250Z,93939.00
2024-01-03T08:15:22.227Z,93941.00
2024-01-03T08:16:22.321Z,93936.00
2024-01-03T08:17:22.394Z,93938.00
2024-01-03T08:18:22.599Z,93938.00
2024-01-03T08:19:22.709Z,93940.00
2024-01-03T08:20:22.629Z,93944.00
2024-01-03T08:21:22.700Z,93949.00
2024-01-03T08:22:22.666Z,93954.00
2024-01-03T08:23:22.765Z,93962.00
2024-01-03T08:24:22.823Z,93961.00
2024-01-03T08:25:23.007Z,93959.00
2024-01-03T08:26:22.974Z,93954.00
2024-01-03T08:27:23.029Z,93952.00
2024-01-03T08:28:23.006Z,93949.00
2024-01-03T08:29:23.155Z,93947.00
2024-01-03T08:30:23.203Z,93947.00
2024-01-03T08:31:23.241Z,93946.00
2024-01-03T08:32:23.342Z,93945.00
2024-01-03T08:33:23.400Z,93945.00
2024-01-03T08:34:23.500Z,93942.00
2024-01-03T08:35:23.475Z,93946.00
2024-01-03T08:36:23.516Z,93958.00
2024-01-03T08:37:24.261Z,93965.00
2024-01-03T08:38:23.619Z,93966.00
2024-01-03T08:39:23.617Z,93963.00
2024-01-03T08:40:23.701Z,93962.00
2024-01-03T08:41:23.849Z,93960.00
2024-01-03T08:42:23.774Z,93959.00
2024-01-03T08:43:23.850Z,93956.00
2024-01-03T08:44:24.015Z,93955.00
2024-01-03T08:45:23.957Z,93955.00
2024-01-03T08:46:23.991Z,93952.00
2024-01-03T08:47:24.197Z,93951.00
2024-01-03T08:48:24.272Z,93948.00
2024-01-03T08:49:24.306Z,93945.00
2024-01-03T08:50:24.285Z,93943.00
2024-01-03T08:51:24.301Z,93944.00
2024-01-03T08:52:24.237Z,93944.00
2024-01-03T08:53:24.255Z,93948.00
2024-01-03T08:54:24.313Z,93948.00
2024-01-03T08:55:24.299Z,93949.00
2024-01-03T08:56:24.380Z,93951.00
2024-01-03T08:57:24.436Z,93952.00
2024-01-03T08:58:24.431Z,93952.00
2024-01-03T08:59:24.483Z,93947.00
2024-01-03T09:00:24.485Z,93944.00
2024-01-03T09:01:24.503Z,93945.00
2024-01-03T09:02:24.576Z,93945.00
2024-01-03T09:03:24.619Z,93946.00
2024-01-03T09:04:24.595Z,93944.00
2024-01-03T09:05:24.662Z,93942.00
2024-01-03T09:06:24.936Z,93941.00
2024-01-03T09:07:24.753Z,93940.00
2024-01-03T09:08:24.660Z,93945.00
2024-01-03T09:09:24.661Z,93942.00
2024-01-03T09:10:24.714Z,93940.00
2024-01-03T09:11:24.798Z,93944.00
2024-01-03T09:12:24.732Z,93938.00
2024-01-03T09:13:24.730Z,93937.00
2024-01-03T09:14:24.791Z,93946.00
2024-01-03T09:15:24.747Z,93950.00
2024-01-03T09:16:24.776Z,93951.00
2024-01-03T09:17:24.878Z,93953.00
2024-01-03T09:18:24.980Z,93958.00
2024-01-03T09:19:25.002Z,93956.00
2024-01-03T09:20:24.931Z,93958.00
2024-01-03T09:21:24.866Z,93953.00
2024-01-03T09:22:24.863Z,93955.00
2024-01-03T09:23:24.898Z,93952.00
2024-01-03T09:24:24.929Z,93949.00
2024-01-03T09:25:24.930Z,93954.00
2024-01-03T09:26:25.264Z,93958.00
2024-01-03T09:27:24.942Z,93960.00
2024-01-03T09:28:24.917Z,93958.00
2024-01-03T09:29:25.044Z,93954.00
2024-01-03T09:30:25.013Z,93953.00
2024-01-03T09:31:24.973Z,93955.00
2024-01-03T09:32:25.044Z,93954.00
2024-01-03T09:33:25.084Z,93956.00
2024-01-03T09:34:25.138Z,93954.00
2024-01-03T09:35:25.070Z,93950.00
2024-01-03T09:36:28.350Z,93950.00
2024-01-03T09:37:25.078Z,93954.00
2024-01-03T09:38:25.101Z,93959.00
2024-01-03T09:39:25.075Z,93964.00
2024-01-03T09:40:25.073Z,93964.00
2024-01-03T09:41:25.209Z,93961.00
2024-01-03T09:42:25.191Z,93959.00
2024-01-03T09:43:25.094Z,93962.00
2024-01-03T09:44:25.122Z,93964.00
2024-01-03T09:45:25.102Z,93963.00
2024-01-03T09:46:25.088Z,93958.00
2024-01-03T09:47:25.504Z,93958.00
2024-01-03T09:48:25.170Z,93958.00
2024-01-03T09:49:25.252Z,93956.00
2024-01-03T09:50:25.068Z,93955.00
2024-01-03T09:51:25.068Z,93956.00
2024-01-03T09:52:25.049Z,93957.00
2024-01-03T09:53:25.122Z,93959.00
2024-01-03T09:54:25.072Z,93956.00
2024-01-03T09:55:25.079Z,93956.00
2024-01-03T09:56:25.196Z,93956.00
2024-01-03T09:57:25.094Z,93958.00
2024-01-03T09:58:25.110Z,93957.00
2024-01-03T09:59:25.058Z,93958.00
2024-01-03T10:00:25.069Z,93961.00
2024-01-03T10:01:25.092Z,93962.00
2024-01-03T10:02:25.172Z,93962.00
2024-01-03T10:03:25.200Z,93967.00
2024-01-03T10:04:25.092Z,93967.00
2024-01-03T10:05:25.183Z,93967.00
2024-01-03T10:06:25.171Z,93968.00
2024-01-03T10:07:25.108Z,93967.00
2024-01-03T10:08:25.116Z,93966.00
2024-01-03T10:09:25.087Z,93969.00
2024-01-03T10:10:25.068Z,93969.00
2024-01-03T10:11:25.118Z,93968.00
2024-01-03T10:12:25.112Z,93966.00
2024-01-03T10:13:25.194Z,93965.00
2024-01-03T10:14:25.244Z,93962.00
2024-01-03T10:15:25.317Z,93966.00
2024-01-03T10:16:25.358Z,93960.00
2024-01-03T10:17:25.464Z,93958.00
2024-01-03T10:18:27.792Z,93955.00
2024-01-03T10:19:25.609Z,93955.00
2024-01-03T10:20:25.457Z,93952.00
2024-01-03T10:21:25.474Z,93952.00
2024-01-03T10:22:25.463Z,93954.00
2024-01-03T10:23:25.440Z,93957.00
2024-01-03T10:24:25.422Z,93953.00
2024-01-03T10:25:25.491Z,93951.00
2024-01-03T10:26:25.486Z,93946.00
2024-01-03T10:27:25.510Z,93947.00
2024-01-03T10:28:25.462Z,93948.00
2024-01-03T10:29:25.526Z,93944.00
2024-01-03T10:30:25.505Z,93938.00
2024-01-03T10:31:25.463Z,93936.00
2024-01-03T10:32:25.569Z,93935.00
2024-01-03T10:33:25.577Z,93937.00
2024-01-03T10:34:26.802Z,93938.00
2024-01-03T10:35:25.500Z,93936.00
2024-01-03T10:36:25.490Z,93934.00
2024-01-03T10:37:25.495Z,93932.00
2024-01-03T10:38:25.437Z,93937.00
2024-01-03T10:39:25.439Z,93933.00
2024-01-03T10:40:25.444Z,93929.00
2024-01-03T10:41:25.532Z,93923.00
2024-01-03T10:42:25.502Z,93915.00
2024-01-03T10:43:25.566Z,93910.00
2024-01-03T10:44:25.641Z,93906.00
2024-01-03T10:45:25.685Z,93909.00
2024-01-03T10:46:25.731Z,93910.00
2024-01-03T10:47:25.834Z,93907.00
2024-01-03T10:48:26.000Z,93905.00
2024-01-03T10:49:26.051Z,93903.00
2024-01-03T10:50:26.055Z,93902.00
2024-01-03T10:51:26.085Z,93897.00
2024-01-03T10:52:26.070Z,93892.00
2024-01-03T10:53:26.213Z,93885.00
2024-01-03T10:54:26.170Z,93886.00
2024-01-03T10:55:26.208Z,93886.00
2024-01-03T10:56:26.256Z,93885.00
2024-01-03T10:57:27.812Z,93881.00
2024-01-03T10:58:26.535Z,93878.00
2024-01-03T10:59:26.481Z,93875.00
2024-01-03T11:00:26.546Z,93873.00
2024-01-03T11:01:26.624Z,93874.00
2024-01-03T11:02:26.696Z,93874.00
2024-01-03T11:03:26.758Z,93873.00
2024-01-03T11:04:26.773Z,93870.00
2024-01-03T11:05:27.034Z,93869.00
2024-01-03T11:06:26.994Z,93867.00
2024-01-03T11:07:26.970Z,93864.00
2024-01-03T11:08:27.054Z,93864.00
2024-01-03T11:09:28.211Z,93861.00
2024-01-03T11:10:27.187Z,93855.00
2024-01-03T11:11:27.204Z,93854.00
2024-01-03T11:12:27.250Z,93853.00
2024-01-03T11:13:27.304Z,93849.00
2024-01-03T11:14:27.400Z,93851.00
2024-01-03T11:15:37.888Z,93851.00
2024-01-03T11:16:28.399Z,93857.00
2024-01-03T11:17:27.520Z,93860.00
2024-01-03T11:18:27.542Z,93863.00
2024-01-03T11:19:27.619Z,93870.00
2024-01-03T11:20:27.429Z,93864.00
2024-01-03T11:21:27.459Z,93861.00
2024-01-03T11:22:27.437Z,93851.00
2024-01-03T11:23:27.449Z,93843.00
2024-01-03T11:24:27.432Z,93838.00
2024-01-03T11:25:27.447Z,93840.00
2024-01-03T11:26:27.502Z,93843.00
2024-01-03T11:27:27.549Z,93842.00
2024-01-03T11:28:27.617Z,93843.00
2024-01-03T11:29:27.638Z,93840.00
2024-01-03T11:30:27.785Z,93839.00
2024-01-03T11:31:28.430Z,93835.00
2024-01-03T11:32:27.865Z,93830.00
2024-01-03T11:33:27.958Z,93825.00
2024-01-03T11:34:27.965Z,93822.00
2024-01-03T11:35:27.942Z,93818.00
2024-01-03T11:36:27.927Z,93814.00
2024-01-03T11:37:28.029Z,93812.00
2024-01-03T11:38:28.170Z,93809.00
2024-01-03T11:39:28.106Z,93810.00
2024-01-03T11:40:28.156Z,93808.00
2024-01-03T11:41:28.235Z,93809.00
2024-01-03T11:42:28.273Z,93808.00
2024-01-03T11:43:28.282Z,93800.00
2024-01-03T11:44:28.363Z,93798.00
2024-01-03T11:45:28.419Z,93792.00